Carnival Vista — 3EMB9 — position and weather

sailwx.info

Track history (hours):
 
Tides and Currents Weather Stations Pressure Air Temp Water Temp Dewpoint Dewpoint Depression Visibility Wind Speed Wind Dir Waves Ship Positions

Carnival Vista

Last reported at 2017-Dec-11 11:00 UTC. Time now 2017-Dec-14 15:09 UTC.
Position N 22°36' W 078°18'.

Length 324 m; draft 8.5 m.

Type: Passenger vessel. MMSI: 356883000.

Wind from 360 at 38 knots

Barometer 1019.0 mb
Air temperature 23.0 ° C
Visibility: greater than 10.8 NM
Dewpoint 19.9 ° C
Water temperature 27.0 ° C

Date/timePositionNaut miles runAvg speedWind from/ knotsBaromVisibWave heightAir tempDewpointWater temp
2017-Dec-11 11:00N 22°36' W 078°18'19719.8 360 / 381019.010.8 23.019.927.0
2017-Dec-11 01:00N 25°35' W 079°49'1019.2
2017-Dec-11 00:30N 25°41' W 079°57'815.4
2017-Dec-11 00:01N 25°46' W 080°04'5 9.9
2017-Dec-10 23:30N 25°46' W 080°09'1 1.5
2017-Dec-10 22:58N 25°47' W 080°10'0 0.0
2017-Dec-10 22:28N 25°47' W 080°10'0 0.0
2017-Dec-10 21:58N 25°47' W 080°10'0 0.0
2017-Dec-10 21:25N 25°47' W 080°10'0 0.0
2017-Dec-10 20:49N 25°47' W 080°10'0 0.0
2017-Dec-10 20:28N 25°47' W 080°10'0 0.0
2017-Dec-10 19:58N 25°47' W 080°10'0 0.0
2017-Dec-10 19:28N 25°47' W 080°10'0 0.0
2017-Dec-10 18:58N 25°47' W 080°10'0 0.0
2017-Dec-10 18:28N 25°47' W 080°10'0 0.0
2017-Dec-10 17:58N 25°47' W 080°10'0 0.0
2017-Dec-10 17:28N 25°47' W 080°10'0 0.0
2017-Dec-10 16:58N 25°47' W 080°10'0 0.0
2017-Dec-10 16:25N 25°47' W 080°10'0 0.0
2017-Dec-10 15:55N 25°47' W 080°10'0 0.0
2017-Dec-10 15:25N 25°47' W 080°10'0 0.0
2017-Dec-10 14:55N 25°47' W 080°10'0 0.0
2017-Dec-10 14:28N 25°47' W 080°10'0 0.0
2017-Dec-10 13:58N 25°47' W 080°10'0 0.0
2017-Dec-10 13:28N 25°47' W 080°10'0 0.0
2017-Dec-10 12:58N 25°47' W 080°10'0 0.0
2017-Dec-10 12:28N 25°47' W 080°10'0 0.0
2017-Dec-10 11:58N 25°47' W 080°10'0 0.0
2017-Dec-10 11:28N 25°47' W 080°10'0 0.0
2017-Dec-10 10:58N 25°47' W 080°10'0 0.0
2017-Dec-10 10:28N 25°47' W 080°10'0 0.0
2017-Dec-10 10:01N 25°47' W 080°10'1 1.9
2017-Dec-10 09:31N 25°47' W 080°11'3 6.3
2017-Dec-10 09:01N 25°46' W 080°08'510.6
2017-Dec-10 08:30N 25°46' W 080°02'611.2
2017-Dec-10 08:00N 25°42' W 079°58'815.1
2017-Dec-10 07:30N 25°36' W 079°53'714.8
2017-Dec-10 07:00N 25°30' W 079°48'917.6
2017-Dec-10 06:30N 25°23' W 079°42'18916.4
2017-Dec-09 19:00N 22°36' W 078°06'13318.9 190 / 101009.0 5.4 28.025.228.0
2017-Dec-09 12:00N 21°24' W 076°06'16314.8 120 / 121013.010.8 28.025.227.0
2017-Dec-09 01:00N 19°12' W 074°24'21616.6 030 / 101014.0 26.023.128.0
2017-Dec-08 12:00N 15°54' W 072°54'20218.3 050 / 181014.027.0 28.025.228.0
2017-Dec-08 01:00N 13°18' W 070°42'95 2.6 080 / 251014.0 28.025.228.0
2017-Dec-06 12:00N 13°36' W 069°06'24020.0 080 / 451011.010.8 28.025.228.0
2017-Dec-06 00:00N 17°36' W 069°00'33 2.8 060 / 251015.010.8 28.025.228.0
2017-Dec-05 12:00N 18°00' W 068°36'15213.8 060 / 251015.010.8 28.025.228.0
2017-Dec-05 01:00N 20°06' W 070°06'37212.4 050 / 251014.0 28.025.228.0
2017-Dec-03 19:00N 24°36' W 074°42'10617.6 050 / 181014.027.0 28.025.228.0
2017-Dec-03 13:00N 25°36' W 076°18'3819.2 060 / 261014.0 28.025.229.0
2017-Dec-03 11:00N 25°42' W 077°00'13420.0 040 / 151016.010.8 25.022.025.0
2017-Dec-03 04:18N 26°08' W 079°26'518.4
2017-Dec-03 04:00N 26°04' W 079°31'918.4
2017-Dec-03 03:30N 25°58' W 079°39'917.7
2017-Dec-03 03:00N 25°55' W 079°48'917.4
2017-Dec-03 02:30N 25°52' W 079°57'714.9
2017-Dec-03 02:00N 25°47' W 080°03'4 8.3
2017-Dec-03 01:30N 25°46' W 080°07'3 5.1
2017-Dec-03 01:00N 25°47' W 080°10'0 0.0
2017-Dec-03 00:30N 25°47' W 080°10'0 0.0
2017-Dec-03 00:00N 25°47' W 080°10'0 0.0
2017-Dec-02 23:24N 25°47' W 080°10'0 0.0
2017-Dec-02 23:00N 25°47' W 080°10'0 0.0
2017-Dec-02 22:27N 25°47' W 080°10'0 0.0
2017-Dec-02 22:00N 25°47' W 080°10'0 0.0
2017-Dec-02 21:30N 25°47' W 080°10'0 0.0
2017-Dec-02 21:00N 25°47' W 080°10'0 0.0
2017-Dec-02 20:30N 25°47' W 080°10'0 0.0
2017-Dec-02 20:00N 25°47' W 080°10'0 0.0
2017-Dec-02 16:06N 25°47' W 080°10'0 0.0
2017-Dec-02 15:57N 25°47' W 080°10'0 0.0
2017-Dec-02 15:30N 25°47' W 080°10'0 0.1
2017-Dec-02 15:00N 25°47' W 080°10'0 0.0
2017-Dec-02 14:30N 25°47' W 080°10'0 0.0
2017-Dec-02 13:57N 25°47' W 080°10'0 0.0
2017-Dec-02 13:30N 25°47' W 080°10'0 0.0
2017-Dec-02 13:00N 25°47' W 080°10'0 0.0
2017-Dec-02 12:30N 25°47' W 080°10'0 0.0
2017-Dec-02 12:00N 25°47' W 080°10'0 0.0
2017-Dec-02 11:30N 25°47' W 080°10'0 0.0
2017-Dec-02 11:00N 25°47' W 080°10'0 0.0
2017-Dec-02 10:30N 25°47' W 080°10'0 0.0
2017-Dec-02 10:00N 25°47' W 080°10'0 0.0
2017-Dec-02 09:30N 25°47' W 080°10'0 0.0
2017-Dec-02 09:00N 25°47' W 080°10'0 0.0
2017-Dec-02 08:30N 25°47' W 080°10'0 0.0
2017-Dec-02 08:00N 25°47' W 080°10'0 0.0
2017-Dec-02 07:30N 25°47' W 080°10'0 0.3
2017-Dec-02 07:00N 25°47' W 080°10'0 0.1
2017-Dec-02 06:30N 25°47' W 080°10'5 9.2
2017-Dec-02 06:00N 25°46' W 080°05'3 5.9
2017-Dec-02 05:31N 25°47' W 080°02'5 9.1
2017-Dec-02 05:01N 25°43' W 079°59'815.5
2017-Dec-02 04:31N 25°37' W 079°54'815.4
2017-Dec-02 04:00N 25°31' W 079°49'  
Track history (hours):
 
Tides and Currents Weather Stations Pressure Air Temp Water Temp Dewpoint Dewpoint Depression Visibility Wind Speed Wind Dir Waves Ship Positions

Carnival Vista

Last reported at 2017-Dec-11 11:00 UTC. Time now 2017-Dec-14 15:09 UTC.
Position N 22°36' W 078°18'.

Length 324 m; draft 8.5 m.

Type: Passenger vessel. MMSI: 356883000.

Wind from 360 at 38 knots

Barometer 1019.0 mb
Air temperature 23.0 ° C
Visibility: greater than 10.8 NM
Dewpoint 19.9 ° C
Water temperature 27.0 ° C

Date/timePositionNaut miles runAvg speedWind from/ knotsBaromVisibWave heightAir tempDewpointWater temp
2017-Dec-11 11:00N 22°36' W 078°18'19719.8 360 / 381019.010.8 23.019.927.0
2017-Dec-11 01:00N 25°35' W 079°49'1019.2
2017-Dec-11 00:30N 25°41' W 079°57'815.4
2017-Dec-11 00:01N 25°46' W 080°04'5 9.9
2017-Dec-10 23:30N 25°46' W 080°09'1 1.5
2017-Dec-10 22:58N 25°47' W 080°10'0 0.0
2017-Dec-10 22:28N 25°47' W 080°10'0 0.0
2017-Dec-10 21:58N 25°47' W 080°10'0 0.0
2017-Dec-10 21:25N 25°47' W 080°10'0 0.0
2017-Dec-10 20:49N 25°47' W 080°10'0 0.0
2017-Dec-10 20:28N 25°47' W 080°10'0 0.0
2017-Dec-10 19:58N 25°47' W 080°10'0 0.0
2017-Dec-10 19:28N 25°47' W 080°10'0 0.0
2017-Dec-10 18:58N 25°47' W 080°10'0 0.0
2017-Dec-10 18:28N 25°47' W 080°10'0 0.0
2017-Dec-10 17:58N 25°47' W 080°10'0 0.0
2017-Dec-10 17:28N 25°47' W 080°10'0 0.0
2017-Dec-10 16:58N 25°47' W 080°10'0 0.0
2017-Dec-10 16:25N 25°47' W 080°10'0 0.0
2017-Dec-10 15:55N 25°47' W 080°10'0 0.0
2017-Dec-10 15:25N 25°47' W 080°10'0 0.0
2017-Dec-10 14:55N 25°47' W 080°10'0 0.0
2017-Dec-10 14:28N 25°47' W 080°10'0 0.0
2017-Dec-10 13:58N 25°47' W 080°10'0 0.0
2017-Dec-10 13:28N 25°47' W 080°10'0 0.0
2017-Dec-10 12:58N 25°47' W 080°10'0 0.0
2017-Dec-10 12:28N 25°47' W 080°10'0 0.0
2017-Dec-10 11:58N 25°47' W 080°10'0 0.0
2017-Dec-10 11:28N 25°47' W 080°10'0 0.0
2017-Dec-10 10:58N 25°47' W 080°10'0 0.0
2017-Dec-10 10:28N 25°47' W 080°10'0 0.0
2017-Dec-10 10:01N 25°47' W 080°10'1 1.9
2017-Dec-10 09:31N 25°47' W 080°11'3 6.3
2017-Dec-10 09:01N 25°46' W 080°08'510.6
2017-Dec-10 08:30N 25°46' W 080°02'611.2
2017-Dec-10 08:00N 25°42' W 079°58'815.1
2017-Dec-10 07:30N 25°36' W 079°53'714.8
2017-Dec-10 07:00N 25°30' W 079°48'917.6
2017-Dec-10 06:30N 25°23' W 079°42'18916.4
2017-Dec-09 19:00N 22°36' W 078°06'13318.9 190 / 101009.0 5.4 28.025.228.0
2017-Dec-09 12:00N 21°24' W 076°06'16314.8 120 / 121013.010.8 28.025.227.0
2017-Dec-09 01:00N 19°12' W 074°24'21616.6 030 / 101014.0 26.023.128.0
2017-Dec-08 12:00N 15°54' W 072°54'20218.3 050 / 181014.027.0 28.025.228.0
2017-Dec-08 01:00N 13°18' W 070°42'95 2.6 080 / 251014.0 28.025.228.0
2017-Dec-06 12:00N 13°36' W 069°06'24020.0 080 / 451011.010.8 28.025.228.0
2017-Dec-06 00:00N 17°36' W 069°00'33 2.8 060 / 251015.010.8 28.025.228.0
2017-Dec-05 12:00N 18°00' W 068°36'15213.8 060 / 251015.010.8 28.025.228.0
2017-Dec-05 01:00N 20°06' W 070°06'37212.4 050 / 251014.0 28.025.228.0
2017-Dec-03 19:00N 24°36' W 074°42'10617.6 050 / 181014.027.0 28.025.228.0
2017-Dec-03 13:00N 25°36' W 076°18'3819.2 060 / 261014.0 28.025.229.0
2017-Dec-03 11:00N 25°42' W 077°00'13420.0 040 / 151016.010.8 25.022.025.0
2017-Dec-03 04:18N 26°08' W 079°26'518.4
2017-Dec-03 04:00N 26°04' W 079°31'918.4
2017-Dec-03 03:30N 25°58' W 079°39'917.7
2017-Dec-03 03:00N 25°55' W 079°48'917.4
2017-Dec-03 02:30N 25°52' W 079°57'714.9
2017-Dec-03 02:00N 25°47' W 080°03'4 8.3
2017-Dec-03 01:30N 25°46' W 080°07'3 5.1
2017-Dec-03 01:00N 25°47' W 080°10'0 0.0
2017-Dec-03 00:30N 25°47' W 080°10'0 0.0
2017-Dec-03 00:00N 25°47' W 080°10'0 0.0
2017-Dec-02 23:24N 25°47' W 080°10'0 0.0
2017-Dec-02 23:00N 25°47' W 080°10'0 0.0
2017-Dec-02 22:27N 25°47' W 080°10'0 0.0
2017-Dec-02 22:00N 25°47' W 080°10'0 0.0
2017-Dec-02 21:30N 25°47' W 080°10'0 0.0
2017-Dec-02 21:00N 25°47' W 080°10'0 0.0
2017-Dec-02 20:30N 25°47' W 080°10'0 0.0
2017-Dec-02 20:00N 25°47' W 080°10'0 0.0
2017-Dec-02 16:06N 25°47' W 080°10'0 0.0
2017-Dec-02 15:57N 25°47' W 080°10'0 0.0
2017-Dec-02 15:30N 25°47' W 080°10'0 0.1
2017-Dec-02 15:00N 25°47' W 080°10'0 0.0
2017-Dec-02 14:30N 25°47' W 080°10'0 0.0
2017-Dec-02 13:57N 25°47' W 080°10'0 0.0
2017-Dec-02 13:30N 25°47' W 080°10'0 0.0
2017-Dec-02 13:00N 25°47' W 080°10'0 0.0
2017-Dec-02 12:30N 25°47' W 080°10'0 0.0
2017-Dec-02 12:00N 25°47' W 080°10'0 0.0
2017-Dec-02 11:30N 25°47' W 080°10'0 0.0
2017-Dec-02 11:00N 25°47' W 080°10'0 0.0
2017-Dec-02 10:30N 25°47' W 080°10'0 0.0
2017-Dec-02 10:00N 25°47' W 080°10'0 0.0
2017-Dec-02 09:30N 25°47' W 080°10'0 0.0
2017-Dec-02 09:00N 25°47' W 080°10'0 0.0
2017-Dec-02 08:30N 25°47' W 080°10'0 0.0
2017-Dec-02 08:00N 25°47' W 080°10'0 0.0
2017-Dec-02 07:30N 25°47' W 080°10'0 0.3
2017-Dec-02 07:00N 25°47' W 080°10'0 0.1
2017-Dec-02 06:30N 25°47' W 080°10'5 9.2
2017-Dec-02 06:00N 25°46' W 080°05'3 5.9
2017-Dec-02 05:31N 25°47' W 080°02'5 9.1
2017-Dec-02 05:01N 25°43' W 079°59'815.5
2017-Dec-02 04:31N 25°37' W 079°54'815.4
2017-Dec-02 04:00N 25°31' W 079°49'  

Dump ship's entire track history